sensor_id;sensor_type;location;lat;lon;timestamp;P1;durP1;ratioP1;P2;durP2;ratioP2
50367;SDS011;36281;34.132;-118.018;2023-08-17T00:02:15;3.47;;;3.17;;
50367;SDS011;36281;34.132;-118.018;2023-08-17T00:04:44;5.53;;;3.90;;
50367;SDS011;36281;34.132;-118.018;2023-08-17T00:07:13;4.15;;;3.30;;
50367;SDS011;36281;34.132;-118.018;2023-08-17T00:09:42;5.00;;;3.65;;
50367;SDS011;36281;34.132;-118.018;2023-08-17T00:12:11;4.00;;;3.40;;
50367;SDS011;36281;34.132;-118.018;2023-08-17T00:14:41;4.25;;;3.70;;
50367;SDS011;36281;34.132;-118.018;2023-08-17T00:17:10;5.00;;;3.80;;
50367;SDS011;36281;34.132;-118.018;2023-08-17T00:19:39;4.72;;;3.92;;
50367;SDS011;36281;34.132;-118.018;2023-08-17T00:22:08;6.90;;;3.80;;
50367;SDS011;36281;34.132;-118.018;2023-08-17T00:24:37;5.43;;;4.20;;
50367;SDS011;36281;34.132;-118.018;2023-08-17T00:27:08;6.45;;;4.40;;
50367;SDS011;36281;34.132;-118.018;2023-08-17T00:29:37;7.18;;;4.70;;
50367;SDS011;36281;34.132;-118.018;2023-08-17T00:32:07;5.90;;;4.50;;
50367;SDS011;36281;34.132;-118.018;2023-08-17T00:34:36;7.13;;;4.95;;
50367;SDS011;36281;34.132;-118.018;2023-08-17T00:37:05;6.07;;;4.80;;
50367;SDS011;36281;34.132;-118.018;2023-08-17T00:39:34;7.25;;;5.00;;
50367;SDS011;36281;34.132;-118.018;2023-08-17T00:42:04;6.78;;;5.20;;
50367;SDS011;36281;34.132;-118.018;2023-08-17T00:44:33;7.63;;;5.50;;
50367;SDS011;36281;34.132;-118.018;2023-08-17T00:47:02;5.68;;;5.13;;
50367;SDS011;36281;34.132;-118.018;2023-08-17T00:49:34;10.15;;;5.57;;
50367;SDS011;36281;34.132;-118.018;2023-08-17T00:52:03;7.78;;;5.97;;
50367;SDS011;36281;34.132;-118.018;2023-08-17T00:54:32;8.27;;;6.20;;
50367;SDS011;36281;34.132;-118.018;2023-08-17T00:57:01;6.28;;;5.50;;
50367;SDS011;36281;34.132;-118.018;2023-08-17T00:59:34;6.63;;;5.85;;
50367;SDS011;36281;34.132;-118.018;2023-08-17T01:02:03;6.70;;;6.00;;
50367;SDS011;36281;34.132;-118.018;2023-08-17T01:04:34;6.38;;;5.65;;
50367;SDS011;36281;34.132;-118.018;2023-08-17T01:07:04;6.22;;;5.60;;
50367;SDS011;36281;34.132;-118.018;2023-08-17T01:09:33;7.80;;;5.65;;
50367;SDS011;36281;34.132;-118.018;2023-08-17T01:12:03;7.15;;;6.07;;
50367;SDS011;36281;34.132;-118.018;2023-08-17T01:14:44;7.70;;;5.55;;
50367;SDS011;36281;34.132;-118.018;2023-08-17T01:17:22;5.90;;;5.30;;
50367;SDS011;36281;34.132;-118.018;2023-08-17T01:19:56;8.52;;;5.20;;
50367;SDS011;36281;34.132;-118.018;2023-08-17T01:22:26;6.15;;;5.30;;
50367;SDS011;36281;34.132;-118.018;2023-08-17T01:25:02;6.90;;;4.97;;
50367;SDS011;36281;34.132;-118.018;2023-08-17T01:27:33;5.80;;;5.20;;
50367;SDS011;36281;34.132;-118.018;2023-08-17T01:30:05;5.30;;;4.75;;
50367;SDS011;36281;34.132;-118.018;2023-08-17T01:32:37;6.40;;;5.15;;
50367;SDS011;36281;34.132;-118.018;2023-08-17T01:35:14;6.22;;;5.00;;
50367;SDS011;36281;34.132;-118.018;2023-08-17T01:37:53;5.72;;;5.05;;
50367;SDS011;36281;34.132;-118.018;2023-08-17T01:40:29;6.90;;;4.90;;
50367;SDS011;36281;34.132;-118.018;2023-08-17T01:43:00;6.10;;;5.30;;
50367;SDS011;36281;34.132;-118.018;2023-08-17T01:45:30;9.20;;;4.88;;
50367;SDS011;36281;34.132;-118.018;2023-08-17T01:47:59;7.10;;;5.18;;
50367;SDS011;36281;34.132;-118.018;2023-08-17T01:50:28;8.00;;;4.63;;
50367;SDS011;36281;34.132;-118.018;2023-08-17T01:52:57;6.53;;;4.78;;
50367;SDS011;36281;34.132;-118.018;2023-08-17T01:55:26;7.07;;;4.68;;
50367;SDS011;36281;34.132;-118.018;2023-08-17T01:57:56;5.90;;;4.65;;
50367;SDS011;36281;34.132;-118.018;2023-08-17T02:00:25;4.47;;;4.07;;
50367;SDS011;36281;34.132;-118.018;2023-08-17T02:02:54;5.15;;;4.20;;
50367;SDS011;36281;34.132;-118.018;2023-08-17T02:05:23;5.18;;;4.15;;
50367;SDS011;36281;34.132;-118.018;2023-08-17T02:07:56;7.55;;;4.53;;
50367;SDS011;36281;34.132;-118.018;2023-08-17T02:10:25;5.80;;;4.43;;
50367;SDS011;36281;34.132;-118.018;2023-08-17T02:12:56;5.68;;;4.15;;
50367;SDS011;36281;34.132;-118.018;2023-08-17T02:15:31;6.00;;;4.25;;
50367;SDS011;36281;34.132;-118.018;2023-08-17T02:18:00;6.50;;;4.50;;
50367;SDS011;36281;34.132;-118.018;2023-08-17T02:20:29;4.32;;;3.90;;
50367;SDS011;36281;34.132;-118.018;2023-08-17T02:22:58;6.78;;;4.43;;
50367;SDS011;36281;34.132;-118.018;2023-08-17T02:25:27;6.30;;;4.40;;
50367;SDS011;36281;34.132;-118.018;2023-08-17T02:28:04;6.05;;;4.18;;
50367;SDS011;36281;34.132;-118.018;2023-08-17T02:30:33;5.30;;;4.18;;
50367;SDS011;36281;34.132;-118.018;2023-08-17T02:33:03;5.25;;;4.35;;
50367;SDS011;36281;34.132;-118.018;2023-08-17T02:35:32;6.93;;;5.03;;
50367;SDS011;36281;34.132;-118.018;2023-08-17T02:38:01;8.57;;;4.55;;
50367;SDS011;36281;34.132;-118.018;2023-08-17T02:40:30;6.07;;;4.97;;
50367;SDS011;36281;34.132;-118.018;2023-08-17T02:42:59;9.13;;;4.72;;
50367;SDS011;36281;34.132;-118.018;2023-08-17T02:45:30;6.65;;;4.68;;
50367;SDS011;36281;34.132;-118.018;2023-08-17T02:47:59;5.03;;;4.53;;
50367;SDS011;36281;34.132;-118.018;2023-08-17T02:50:28;5.32;;;4.60;;
50367;SDS011;36281;34.132;-118.018;2023-08-17T02:52:57;6.22;;;4.72;;
50367;SDS011;36281;34.132;-118.018;2023-08-17T02:55:27;5.57;;;4.90;;
50367;SDS011;36281;34.132;-118.018;2023-08-17T02:57:56;6.15;;;5.03;;
50367;SDS011;36281;34.132;-118.018;2023-08-17T03:00:25;5.53;;;4.88;;
50367;SDS011;36281;34.132;-118.018;2023-08-17T03:02:56;5.75;;;4.90;;
50367;SDS011;36281;34.132;-118.018;2023-08-17T03:05:25;6.70;;;5.00;;
50367;SDS011;36281;34.132;-118.018;2023-08-17T03:07:54;7.60;;;4.78;;
50367;SDS011;36281;34.132;-118.018;2023-08-17T03:10:23;8.60;;;5.22;;
50367;SDS011;36281;34.132;-118.018;2023-08-17T03:12:52;5.85;;;4.95;;
50367;SDS011;36281;34.132;-118.018;2023-08-17T03:15:21;7.32;;;5.07;;
50367;SDS011;36281;34.132;-118.018;2023-08-17T03:17:50;8.85;;;5.10;;
50367;SDS011;36281;34.132;-118.018;2023-08-17T03:20:24;5.88;;;5.10;;
50367;SDS011;36281;34.132;-118.018;2023-08-17T03:22:53;6.75;;;5.07;;
50367;SDS011;36281;34.132;-118.018;2023-08-17T03:25:22;5.75;;;5.10;;
50367;SDS011;36281;34.132;-118.018;2023-08-17T03:27:51;6.90;;;5.15;;
50367;SDS011;36281;34.132;-118.018;2023-08-17T03:30:20;7.22;;;5.05;;
50367;SDS011;36281;34.132;-118.018;2023-08-17T03:32:49;8.05;;;5.32;;
50367;SDS011;36281;34.132;-118.018;2023-08-17T03:35:18;7.57;;;5.30;;
50367;SDS011;36281;34.132;-118.018;2023-08-17T03:37:48;7.53;;;5.57;;
50367;SDS011;36281;34.132;-118.018;2023-08-17T03:40:17;7.50;;;5.22;;
50367;SDS011;36281;34.132;-118.018;2023-08-17T03:42:46;6.90;;;5.10;;
50367;SDS011;36281;34.132;-118.018;2023-08-17T03:45:15;7.70;;;5.22;;
50367;SDS011;36281;34.132;-118.018;2023-08-17T03:47:44;7.13;;;4.93;;
50367;SDS011;36281;34.132;-118.018;2023-08-17T03:50:13;8.70;;;5.38;;
50367;SDS011;36281;34.132;-118.018;2023-08-17T03:52:42;8.43;;;5.28;;
50367;SDS011;36281;34.132;-118.018;2023-08-17T03:55:13;7.55;;;5.20;;
50367;SDS011;36281;34.132;-118.018;2023-08-17T03:57:42;8.15;;;5.45;;
50367;SDS011;36281;34.132;-118.018;2023-08-17T04:00:11;6.05;;;4.88;;
50367;SDS011;36281;34.132;-118.018;2023-08-17T04:02:41;5.97;;;5.03;;
50367;SDS011;36281;34.132;-118.018;2023-08-17T04:05:10;7.25;;;5.05;;
50367;SDS011;36281;34.132;-118.018;2023-08-17T04:07:39;7.32;;;4.90;;
50367;SDS011;36281;34.132;-118.018;2023-08-17T04:10:08;6.78;;;5.10;;
50367;SDS011;36281;34.132;-118.018;2023-08-17T04:12:39;8.05;;;5.65;;
50367;SDS011;36281;34.132;-118.018;2023-08-17T04:15:08;5.72;;;5.03;;
50367;SDS011;36281;34.132;-118.018;2023-08-17T04:17:37;9.73;;;5.47;;
50367;SDS011;36281;34.132;-118.018;2023-08-17T04:20:07;6.15;;;5.10;;
50367;SDS011;36281;34.132;-118.018;2023-08-17T04:22:36;6.80;;;5.00;;
50367;SDS011;36281;34.132;-118.018;2023-08-17T04:25:05;6.40;;;4.90;;
50367;SDS011;36281;34.132;-118.018;2023-08-17T04:27:39;7.88;;;5.45;;
50367;SDS011;36281;34.132;-118.018;2023-08-17T04:30:08;6.80;;;5.50;;
50367;SDS011;36281;34.132;-118.018;2023-08-17T04:32:38;6.45;;;5.18;;
50367;SDS011;36281;34.132;-118.018;2023-08-17T04:35:07;9.45;;;5.65;;
50367;SDS011;36281;34.132;-118.018;2023-08-17T04:37:37;6.22;;;5.53;;
50367;SDS011;36281;34.132;-118.018;2023-08-17T04:40:07;9.45;;;5.10;;
50367;SDS011;36281;34.132;-118.018;2023-08-17T04:42:39;7.65;;;5.53;;
50367;SDS011;36281;34.132;-118.018;2023-08-17T04:45:08;9.43;;;5.70;;
50367;SDS011;36281;34.132;-118.018;2023-08-17T04:47:37;8.57;;;5.70;;
50367;SDS011;36281;34.132;-118.018;2023-08-17T04:50:07;8.25;;;5.35;;
50367;SDS011;36281;34.132;-118.018;2023-08-17T04:52:36;7.22;;;4.97;;
50367;SDS011;36281;34.132;-118.018;2023-08-17T04:55:05;7.05;;;5.53;;
50367;SDS011;36281;34.132;-118.018;2023-08-17T04:57:35;7.43;;;5.00;;
50367;SDS011;36281;34.132;-118.018;2023-08-17T05:00:07;9.20;;;5.43;;
50367;SDS011;36281;34.132;-118.018;2023-08-17T05:02:36;7.68;;;5.55;;
50367;SDS011;36281;34.132;-118.018;2023-08-17T05:05:09;7.28;;;5.20;;
50367;SDS011;36281;34.132;-118.018;2023-08-17T05:07:38;9.10;;;5.25;;
50367;SDS011;36281;34.132;-118.018;2023-08-17T05:10:07;8.77;;;5.72;;
50367;SDS011;36281;34.132;-118.018;2023-08-17T05:12:37;6.15;;;5.38;;
50367;SDS011;36281;34.132;-118.018;2023-08-17T05:15:08;9.32;;;5.47;;
50367;SDS011;36281;34.132;-118.018;2023-08-17T05:17:37;6.25;;;5.15;;
50367;SDS011;36281;34.132;-118.018;2023-08-17T05:20:07;8.40;;;5.20;;
50367;SDS011;36281;34.132;-118.018;2023-08-17T05:22:36;7.13;;;5.60;;
50367;SDS011;36281;34.132;-118.018;2023-08-17T05:25:06;6.97;;;5.00;;
50367;SDS011;36281;34.132;-118.018;2023-08-17T05:27:35;7.43;;;4.85;;
50367;SDS011;36281;34.132;-118.018;2023-08-17T05:30:04;6.15;;;5.03;;
50367;SDS011;36281;34.132;-118.018;2023-08-17T05:32:36;8.00;;;5.10;;
50367;SDS011;36281;34.132;-118.018;2023-08-17T05:35:05;7.55;;;5.38;;
50367;SDS011;36281;34.132;-118.018;2023-08-17T05:37:35;6.13;;;5.35;;
50367;SDS011;36281;34.132;-118.018;2023-08-17T05:40:04;6.65;;;4.80;;
50367;SDS011;36281;34.132;-118.018;2023-08-17T05:42:34;7.35;;;4.90;;
50367;SDS011;36281;34.132;-118.018;2023-08-17T05:45:03;8.43;;;5.72;;
50367;SDS011;36281;34.132;-118.018;2023-08-17T05:47:34;9.45;;;5.18;;
50367;SDS011;36281;34.132;-118.018;2023-08-17T05:50:04;7.00;;;5.70;;
50367;SDS011;36281;34.132;-118.018;2023-08-17T05:52:33;7.75;;;5.32;;
50367;SDS011;36281;34.132;-118.018;2023-08-17T05:55:03;6.43;;;4.95;;
50367;SDS011;36281;34.132;-118.018;2023-08-17T05:57:32;11.27;;;5.85;;
50367;SDS011;36281;34.132;-118.018;2023-08-17T06:00:01;8.88;;;4.70;;
50367;SDS011;36281;34.132;-118.018;2023-08-17T06:02:30;8.52;;;5.35;;
50367;SDS011;36281;34.132;-118.018;2023-08-17T06:05:01;8.25;;;5.53;;
50367;SDS011;36281;34.132;-118.018;2023-08-17T06:07:30;6.85;;;4.97;;
50367;SDS011;36281;34.132;-118.018;2023-08-17T06:09:59;8.65;;;5.40;;
50367;SDS011;36281;34.132;-118.018;2023-08-17T06:12:31;7.13;;;5.03;;
50367;SDS011;36281;34.132;-118.018;2023-08-17T06:15:01;8.43;;;5.53;;
50367;SDS011;36281;34.132;-118.018;2023-08-17T06:17:30;6.93;;;5.53;;
50367;SDS011;36281;34.132;-118.018;2023-08-17T06:20:01;7.60;;;5.10;;
50367;SDS011;36281;34.132;-118.018;2023-08-17T06:22:31;7.88;;;5.45;;
50367;SDS011;36281;34.132;-118.018;2023-08-17T06:25:00;9.30;;;5.40;;
50367;SDS011;36281;34.132;-118.018;2023-08-17T06:27:28;10.27;;;5.93;;
50367;SDS011;36281;34.132;-118.018;2023-08-17T06:29:57;7.60;;;5.30;;
50367;SDS011;36281;34.132;-118.018;2023-08-17T06:32:26;9.05;;;5.40;;
50367;SDS011;36281;34.132;-118.018;2023-08-17T06:34:55;7.78;;;5.65;;
50367;SDS011;36281;34.132;-118.018;2023-08-17T06:37:26;7.07;;;5.53;;
50367;SDS011;36281;34.132;-118.018;2023-08-17T06:39:56;7.97;;;5.22;;
50367;SDS011;36281;34.132;-118.018;2023-08-17T06:42:25;9.73;;;5.55;;
50367;SDS011;36281;34.132;-118.018;2023-08-17T06:44:54;8.77;;;5.85;;
50367;SDS011;36281;34.132;-118.018;2023-08-17T06:47:23;9.35;;;5.90;;
50367;SDS011;36281;34.132;-118.018;2023-08-17T06:49:52;7.25;;;5.43;;
50367;SDS011;36281;34.132;-118.018;2023-08-17T06:52:22;7.15;;;5.25;;
50367;SDS011;36281;34.132;-118.018;2023-08-17T06:54:52;7.80;;;4.95;;
50367;SDS011;36281;34.132;-118.018;2023-08-17T06:57:21;7.13;;;5.00;;
50367;SDS011;36281;34.132;-118.018;2023-08-17T06:59:51;8.00;;;5.30;;
50367;SDS011;36281;34.132;-118.018;2023-08-17T07:02:20;7.45;;;5.30;;
50367;SDS011;36281;34.132;-118.018;2023-08-17T07:04:49;9.00;;;5.85;;
50367;SDS011;36281;34.132;-118.018;2023-08-17T07:07:18;7.38;;;5.20;;
50367;SDS011;36281;34.132;-118.018;2023-08-17T07:09:47;8.20;;;5.30;;
50367;SDS011;36281;34.132;-118.018;2023-08-17T07:12:17;7.78;;;5.20;;
50367;SDS011;36281;34.132;-118.018;2023-08-17T07:14:47;8.00;;;5.40;;
50367;SDS011;36281;34.132;-118.018;2023-08-17T07:17:16;6.18;;;4.85;;
50367;SDS011;36281;34.132;-118.018;2023-08-17T07:19:45;7.68;;;4.75;;
50367;SDS011;36281;34.132;-118.018;2023-08-17T07:22:34;7.75;;;5.25;;
50367;SDS011;36281;34.132;-118.018;2023-08-17T07:25:03;7.65;;;4.95;;
50367;SDS011;36281;34.132;-118.018;2023-08-17T07:27:34;7.38;;;5.45;;
50367;SDS011;36281;34.132;-118.018;2023-08-17T07:30:03;7.05;;;5.30;;
50367;SDS011;36281;34.132;-118.018;2023-08-17T07:32:33;7.30;;;5.35;;
50367;SDS011;36281;34.132;-118.018;2023-08-17T07:35:02;8.02;;;5.47;;
50367;SDS011;36281;34.132;-118.018;2023-08-17T07:37:32;6.95;;;5.70;;
50367;SDS011;36281;34.132;-118.018;2023-08-17T07:40:01;8.55;;;5.72;;
50367;SDS011;36281;34.132;-118.018;2023-08-17T07:42:31;8.20;;;4.80;;
50367;SDS011;36281;34.132;-118.018;2023-08-17T07:45:02;8.52;;;5.15;;
50367;SDS011;36281;34.132;-118.018;2023-08-17T07:47:34;7.95;;;5.20;;
50367;SDS011;36281;34.132;-118.018;2023-08-17T07:50:07;7.63;;;5.22;;
50367;SDS011;36281;34.132;-118.018;2023-08-17T07:52:36;6.45;;;5.35;;
50367;SDS011;36281;34.132;-118.018;2023-08-17T07:55:05;7.80;;;5.10;;
50367;SDS011;36281;34.132;-118.018;2023-08-17T07:57:34;9.27;;;5.68;;
50367;SDS011;36281;34.132;-118.018;2023-08-17T08:00:05;7.80;;;5.30;;
50367;SDS011;36281;34.132;-118.018;2023-08-17T08:02:35;7.28;;;5.25;;
50367;SDS011;36281;34.132;-118.018;2023-08-17T08:05:04;6.20;;;5.25;;
50367;SDS011;36281;34.132;-118.018;2023-08-17T08:07:33;6.40;;;4.93;;
50367;SDS011;36281;34.132;-118.018;2023-08-17T08:10:03;8.18;;;5.32;;
50367;SDS011;36281;34.132;-118.018;2023-08-17T08:12:32;7.63;;;5.40;;
50367;SDS011;36281;34.132;-118.018;2023-08-17T08:15:01;10.60;;;5.18;;
50367;SDS011;36281;34.132;-118.018;2023-08-17T08:17:32;7.72;;;5.65;;
50367;SDS011;36281;34.132;-118.018;2023-08-17T08:20:01;6.45;;;5.50;;
50367;SDS011;36281;34.132;-118.018;2023-08-17T08:22:30;7.88;;;5.13;;
50367;SDS011;36281;34.132;-118.018;2023-08-17T08:24:59;7.28;;;5.28;;
50367;SDS011;36281;34.132;-118.018;2023-08-17T08:27:28;6.90;;;5.05;;
50367;SDS011;36281;34.132;-118.018;2023-08-17T08:29:57;7.38;;;5.22;;
50367;SDS011;36281;34.132;-118.018;2023-08-17T08:32:26;7.78;;;5.40;;
50367;SDS011;36281;34.132;-118.018;2023-08-17T08:34:58;6.63;;;5.20;;
50367;SDS011;36281;34.132;-118.018;2023-08-17T08:37:27;7.03;;;4.85;;
50367;SDS011;36281;34.132;-118.018;2023-08-17T08:39:56;7.57;;;5.38;;
50367;SDS011;36281;34.132;-118.018;2023-08-17T08:42:25;8.75;;;5.53;;
50367;SDS011;36281;34.132;-118.018;2023-08-17T08:44:55;8.82;;;5.40;;
50367;SDS011;36281;34.132;-118.018;2023-08-17T08:47:24;7.82;;;5.30;;
50367;SDS011;36281;34.132;-118.018;2023-08-17T08:49:59;6.88;;;5.55;;
50367;SDS011;36281;34.132;-118.018;2023-08-17T08:52:32;7.50;;;5.45;;
50367;SDS011;36281;34.132;-118.018;2023-08-17T08:55:05;8.98;;;5.32;;
50367;SDS011;36281;34.132;-118.018;2023-08-17T08:57:39;6.72;;;5.38;;
50367;SDS011;36281;34.132;-118.018;2023-08-17T09:00:10;7.95;;;5.72;;
50367;SDS011;36281;34.132;-118.018;2023-08-17T09:02:40;7.05;;;4.97;;
50367;SDS011;36281;34.132;-118.018;2023-08-17T09:05:12;7.38;;;5.60;;
50367;SDS011;36281;34.132;-118.018;2023-08-17T09:07:42;9.75;;;5.75;;
50367;SDS011;36281;34.132;-118.018;2023-08-17T09:10:12;8.25;;;5.57;;
50367;SDS011;36281;34.132;-118.018;2023-08-17T09:12:45;8.40;;;5.15;;
50367;SDS011;36281;34.132;-118.018;2023-08-17T09:15:17;7.72;;;4.88;;
50367;SDS011;36281;34.132;-118.018;2023-08-17T09:17:48;9.57;;;5.32;;
50367;SDS011;36281;34.132;-118.018;2023-08-17T09:20:37;7.97;;;5.28;;
50367;SDS011;36281;34.132;-118.018;2023-08-17T09:23:12;7.00;;;5.40;;
50367;SDS011;36281;34.132;-118.018;2023-08-17T09:25:43;11.40;;;5.75;;
50367;SDS011;36281;34.132;-118.018;2023-08-17T09:28:16;7.85;;;5.30;;
50367;SDS011;36281;34.132;-118.018;2023-08-17T09:30:50;8.15;;;5.28;;
50367;SDS011;36281;34.132;-118.018;2023-08-17T09:33:22;7.88;;;5.88;;
50367;SDS011;36281;34.132;-118.018;2023-08-17T09:35:57;6.90;;;5.75;;
50367;SDS011;36281;34.132;-118.018;2023-08-17T09:38:28;9.77;;;6.15;;
50367;SDS011;36281;34.132;-118.018;2023-08-17T09:40:58;10.48;;;6.10;;
50367;SDS011;36281;34.132;-118.018;2023-08-17T09:43:29;8.50;;;5.32;;
50367;SDS011;36281;34.132;-118.018;2023-08-17T09:46:02;8.73;;;5.80;;
50367;SDS011;36281;34.132;-118.018;2023-08-17T09:48:33;10.15;;;5.80;;
50367;SDS011;36281;34.132;-118.018;2023-08-17T09:51:06;10.35;;;5.97;;
50367;SDS011;36281;34.132;-118.018;2023-08-17T09:53:37;7.82;;;5.30;;
50367;SDS011;36281;34.132;-118.018;2023-08-17T09:56:09;9.80;;;6.20;;
50367;SDS011;36281;34.132;-118.018;2023-08-17T09:58:44;7.80;;;5.60;;
50367;SDS011;36281;34.132;-118.018;2023-08-17T10:01:16;8.35;;;5.68;;
50367;SDS011;36281;34.132;-118.018;2023-08-17T10:03:47;7.47;;;5.75;;
50367;SDS011;36281;34.132;-118.018;2023-08-17T10:06:20;7.95;;;6.00;;
50367;SDS011;36281;34.132;-118.018;2023-08-17T10:08:54;8.07;;;5.45;;
50367;SDS011;36281;34.132;-118.018;2023-08-17T10:11:25;9.23;;;6.13;;
50367;SDS011;36281;34.132;-118.018;2023-08-17T10:13:58;8.32;;;5.32;;
50367;SDS011;36281;34.132;-118.018;2023-08-17T10:16:39;9.43;;;5.65;;
50367;SDS011;36281;34.132;-118.018;2023-08-17T10:19:15;8.68;;;6.05;;
50367;SDS011;36281;34.132;-118.018;2023-08-17T10:21:56;7.75;;;5.43;;
50367;SDS011;36281;34.132;-118.018;2023-08-17T10:24:31;8.23;;;5.95;;
50367;SDS011;36281;34.132;-118.018;2023-08-17T10:27:03;9.77;;;5.78;;
50367;SDS011;36281;34.132;-118.018;2023-08-17T10:29:33;9.52;;;5.78;;
50367;SDS011;36281;34.132;-118.018;2023-08-17T10:32:04;8.25;;;5.22;;
50367;SDS011;36281;34.132;-118.018;2023-08-17T10:34:35;8.00;;;5.07;;
50367;SDS011;36281;34.132;-118.018;2023-08-17T10:37:05;7.70;;;5.75;;
50367;SDS011;36281;34.132;-118.018;2023-08-17T10:39:35;8.70;;;5.78;;
50367;SDS011;36281;34.132;-118.018;2023-08-17T10:42:11;9.18;;;5.53;;
50367;SDS011;36281;34.132;-118.018;2023-08-17T10:44:46;7.82;;;6.05;;
50367;SDS011;36281;34.132;-118.018;2023-08-17T10:47:20;9.63;;;5.95;;
50367;SDS011;36281;34.132;-118.018;2023-08-17T10:49:55;8.00;;;6.03;;
50367;SDS011;36281;34.132;-118.018;2023-08-17T10:52:30;9.43;;;6.00;;
50367;SDS011;36281;34.132;-118.018;2023-08-17T10:55:00;8.63;;;6.35;;
50367;SDS011;36281;34.132;-118.018;2023-08-17T10:57:30;12.57;;;6.60;;
50367;SDS011;36281;34.132;-118.018;2023-08-17T11:00:14;9.77;;;6.50;;
50367;SDS011;36281;34.132;-118.018;2023-08-17T11:02:54;9.15;;;6.93;;
50367;SDS011;36281;34.132;-118.018;2023-08-17T11:05:40;8.35;;;6.07;;
50367;SDS011;36281;34.132;-118.018;2023-08-17T11:08:19;14.15;;;6.70;;
50367;SDS011;36281;34.132;-118.018;2023-08-17T11:10:56;9.45;;;6.18;;
50367;SDS011;36281;34.132;-118.018;2023-08-17T11:13:29;9.85;;;6.25;;
50367;SDS011;36281;34.132;-118.018;2023-08-17T11:15:59;10.52;;;6.50;;
50367;SDS011;36281;34.132;-118.018;2023-08-17T11:18:30;10.02;;;7.00;;
50367;SDS011;36281;34.132;-118.018;2023-08-17T11:21:00;14.00;;;7.05;;
50367;SDS011;36281;34.132;-118.018;2023-08-17T11:23:33;9.55;;;7.10;;
50367;SDS011;36281;34.132;-118.018;2023-08-17T11:26:02;11.73;;;6.88;;
50367;SDS011;36281;34.132;-118.018;2023-08-17T11:28:35;11.18;;;6.65;;
50367;SDS011;36281;34.132;-118.018;2023-08-17T11:31:09;12.15;;;7.10;;
50367;SDS011;36281;34.132;-118.018;2023-08-17T11:33:39;15.00;;;7.57;;
50367;SDS011;36281;34.132;-118.018;2023-08-17T11:36:08;13.40;;;7.80;;
50367;SDS011;36281;34.132;-118.018;2023-08-17T11:38:40;13.35;;;7.10;;
50367;SDS011;36281;34.132;-118.018;2023-08-17T11:41:10;14.27;;;7.60;;
50367;SDS011;36281;34.132;-118.018;2023-08-17T11:43:42;11.23;;;7.38;;
50367;SDS011;36281;34.132;-118.018;2023-08-17T11:46:12;16.35;;;7.82;;
50367;SDS011;36281;34.132;-118.018;2023-08-17T11:48:41;11.10;;;7.25;;
50367;SDS011;36281;34.132;-118.018;2023-08-17T11:51:10;10.18;;;6.80;;
50367;SDS011;36281;34.132;-118.018;2023-08-17T11:53:41;13.57;;;7.15;;
50367;SDS011;36281;34.132;-118.018;2023-08-17T11:56:15;16.00;;;8.18;;
50367;SDS011;36281;34.132;-118.018;2023-08-17T11:58:45;18.40;;;8.25;;
50367;SDS011;36281;34.132;-118.018;2023-08-17T12:01:15;16.77;;;8.35;;
50367;SDS011;36281;34.132;-118.018;2023-08-17T12:03:44;15.48;;;8.82;;
50367;SDS011;36281;34.132;-118.018;2023-08-17T12:06:13;14.85;;;7.72;;
50367;SDS011;36281;34.132;-118.018;2023-08-17T12:08:46;15.18;;;7.88;;
50367;SDS011;36281;34.132;-118.018;2023-08-17T12:11:16;12.65;;;7.70;;
50367;SDS011;36281;34.132;-118.018;2023-08-17T12:13:48;11.38;;;7.93;;
50367;SDS011;36281;34.132;-118.018;2023-08-17T12:16:20;10.82;;;7.68;;
50367;SDS011;36281;34.132;-118.018;2023-08-17T12:18:52;11.82;;;8.05;;
50367;SDS011;36281;34.132;-118.018;2023-08-17T12:21:21;14.73;;;7.90;;
50367;SDS011;36281;34.132;-118.018;2023-08-17T12:23:52;17.23;;;8.48;;
50367;SDS011;36281;34.132;-118.018;2023-08-17T12:26:22;11.55;;;7.57;;
50367;SDS011;36281;34.132;-118.018;2023-08-17T12:28:51;12.38;;;8.68;;
50367;SDS011;36281;34.132;-118.018;2023-08-17T12:31:23;12.60;;;7.95;;
50367;SDS011;36281;34.132;-118.018;2023-08-17T12:33:52;12.68;;;8.20;;
50367;SDS011;36281;34.132;-118.018;2023-08-17T12:36:21;14.55;;;8.25;;
50367;SDS011;36281;34.132;-118.018;2023-08-17T12:38:52;12.95;;;8.98;;
50367;SDS011;36281;34.132;-118.018;2023-08-17T12:41:21;12.05;;;8.13;;
50367;SDS011;36281;34.132;-118.018;2023-08-17T12:43:50;18.65;;;9.05;;
50367;SDS011;36281;34.132;-118.018;2023-08-17T12:46:21;15.60;;;8.93;;
50367;SDS011;36281;34.132;-118.018;2023-08-17T12:48:50;17.05;;;9.35;;
50367;SDS011;36281;34.132;-118.018;2023-08-17T12:51:19;15.07;;;9.25;;
50367;SDS011;36281;34.132;-118.018;2023-08-17T12:53:48;13.63;;;8.27;;
50367;SDS011;36281;34.132;-118.018;2023-08-17T12:56:19;14.70;;;9.30;;
50367;SDS011;36281;34.132;-118.018;2023-08-17T12:58:48;15.48;;;8.98;;
50367;SDS011;36281;34.132;-118.018;2023-08-17T13:01:17;14.25;;;9.18;;
50367;SDS011;36281;34.132;-118.018;2023-08-17T13:03:46;14.88;;;9.15;;
50367;SDS011;36281;34.132;-118.018;2023-08-17T13:06:15;15.60;;;9.35;;
50367;SDS011;36281;34.132;-118.018;2023-08-17T13:08:44;16.05;;;9.15;;
50367;SDS011;36281;34.132;-118.018;2023-08-17T13:11:13;14.90;;;9.27;;
50367;SDS011;36281;34.132;-118.018;2023-08-17T13:13:44;17.10;;;8.80;;
50367;SDS011;36281;34.132;-118.018;2023-08-17T13:16:13;13.98;;;9.20;;
50367;SDS011;36281;34.132;-118.018;2023-08-17T13:18:42;15.32;;;9.25;;
50367;SDS011;36281;34.132;-118.018;2023-08-17T13:21:11;15.20;;;8.50;;
50367;SDS011;36281;34.132;-118.018;2023-08-17T13:23:43;12.30;;;8.20;;
50367;SDS011;36281;34.132;-118.018;2023-08-17T13:26:12;14.05;;;8.18;;
50367;SDS011;36281;34.132;-118.018;2023-08-17T13:28:41;15.48;;;8.95;;
50367;SDS011;36281;34.132;-118.018;2023-08-17T13:31:12;13.93;;;9.00;;
50367;SDS011;36281;34.132;-118.018;2023-08-17T13:33:51;15.82;;;9.13;;
50367;SDS011;36281;34.132;-118.018;2023-08-17T13:36:20;11.65;;;8.05;;
50367;SDS011;36281;34.132;-118.018;2023-08-17T13:38:49;14.68;;;8.18;;
50367;SDS011;36281;34.132;-118.018;2023-08-17T13:41:18;14.57;;;9.25;;
50367;SDS011;36281;34.132;-118.018;2023-08-17T13:43:49;11.30;;;7.97;;
50367;SDS011;36281;34.132;-118.018;2023-08-17T13:46:18;16.73;;;9.07;;
50367;SDS011;36281;34.132;-118.018;2023-08-17T13:48:47;15.52;;;9.48;;
50367;SDS011;36281;34.132;-118.018;2023-08-17T13:51:16;14.32;;;9.20;;
50367;SDS011;36281;34.132;-118.018;2023-08-17T13:53:45;16.75;;;9.27;;
50367;SDS011;36281;34.132;-118.018;2023-08-17T13:56:14;15.75;;;8.95;;
50367;SDS011;36281;34.132;-118.018;2023-08-17T13:58:44;19.13;;;10.20;;
50367;SDS011;36281;34.132;-118.018;2023-08-17T14:01:14;12.02;;;9.05;;
50367;SDS011;36281;34.132;-118.018;2023-08-17T14:03:44;18.50;;;9.57;;
50367;SDS011;36281;34.132;-118.018;2023-08-17T14:06:13;15.73;;;9.75;;
50367;SDS011;36281;34.132;-118.018;2023-08-17T14:08:43;13.13;;;9.25;;
50367;SDS011;36281;34.132;-118.018;2023-08-17T14:11:12;14.32;;;8.88;;
50367;SDS011;36281;34.132;-118.018;2023-08-17T14:13:41;14.55;;;10.02;;
50367;SDS011;36281;34.132;-118.018;2023-08-17T14:16:10;13.38;;;9.80;;
50367;SDS011;36281;34.132;-118.018;2023-08-17T14:18:41;17.15;;;9.88;;
50367;SDS011;36281;34.132;-118.018;2023-08-17T14:21:10;18.35;;;9.77;;
50367;SDS011;36281;34.132;-118.018;2023-08-17T14:23:39;19.45;;;9.68;;
50367;SDS011;36281;34.132;-118.018;2023-08-17T14:26:08;13.45;;;9.80;;